sensor_id;sensor_type;location;lat;lon;timestamp;P1;durP1;ratioP1;P2;durP2;ratioP2
17566;SDS011;8901;52.088;5.084;2023-05-07T00:00:05;17.70;;;15.90;;
17566;SDS011;8901;52.088;5.084;2023-05-07T00:05:34;19.60;;;17.70;;
17566;SDS011;8901;52.088;5.084;2023-05-07T00:08:11;18.77;;;16.87;;
17566;SDS011;8901;52.088;5.084;2023-05-07T00:25:30;15.27;;;13.77;;
17566;SDS011;8901;52.088;5.084;2023-05-07T00:28:03;12.60;;;11.40;;
17566;SDS011;8901;52.088;5.084;2023-05-07T00:47:58;11.33;;;10.23;;
17566;SDS011;8901;52.088;5.084;2023-05-07T00:50:26;13.40;;;12.00;;
17566;SDS011;8901;52.088;5.084;2023-05-07T00:53:06;12.80;;;11.63;;
17566;SDS011;8901;52.088;5.084;2023-05-07T00:58:47;12.50;;;11.47;;
17566;SDS011;8901;52.088;5.084;2023-05-07T01:04:19;12.03;;;10.90;;
17566;SDS011;8901;52.088;5.084;2023-05-07T01:06:58;12.10;;;10.93;;
17566;SDS011;8901;52.088;5.084;2023-05-07T01:09:34;12.43;;;11.17;;
17566;SDS011;8901;52.088;5.084;2023-05-07T01:12:16;11.77;;;10.60;;
17566;SDS011;8901;52.088;5.084;2023-05-07T01:20:34;11.07;;;10.03;;
17566;SDS011;8901;52.088;5.084;2023-05-07T01:31:57;10.97;;;9.97;;
17566;SDS011;8901;52.088;5.084;2023-05-07T01:34:28;9.47;;;8.57;;
17566;SDS011;8901;52.088;5.084;2023-05-07T01:40:01;9.67;;;8.30;;
17566;SDS011;8901;52.088;5.084;2023-05-07T01:48:11;10.60;;;9.57;;
17566;SDS011;8901;52.088;5.084;2023-05-07T01:50:40;8.80;;;8.00;;
17566;SDS011;8901;52.088;5.084;2023-05-07T01:53:15;10.30;;;8.87;;
17566;SDS011;8901;52.088;5.084;2023-05-07T01:55:42;8.93;;;7.83;;
17566;SDS011;8901;52.088;5.084;2023-05-07T01:58:10;10.17;;;9.27;;
17566;SDS011;8901;52.088;5.084;2023-05-07T02:00:37;10.43;;;9.50;;
17566;SDS011;8901;52.088;5.084;2023-05-07T02:03:04;9.83;;;8.77;;
17566;SDS011;8901;52.088;5.084;2023-05-07T02:05:33;9.43;;;8.63;;
17566;SDS011;8901;52.088;5.084;2023-05-07T02:08:00;9.47;;;8.47;;
17566;SDS011;8901;52.088;5.084;2023-05-07T02:10:27;8.57;;;7.77;;
17566;SDS011;8901;52.088;5.084;2023-05-07T02:12:54;9.97;;;9.17;;
17566;SDS011;8901;52.088;5.084;2023-05-07T02:15:22;10.30;;;9.40;;
17566;SDS011;8901;52.088;5.084;2023-05-07T02:17:58;9.70;;;8.80;;
17566;SDS011;8901;52.088;5.084;2023-05-07T02:20:26;11.73;;;9.00;;
17566;SDS011;8901;52.088;5.084;2023-05-07T02:22:54;9.20;;;8.30;;
17566;SDS011;8901;52.088;5.084;2023-05-07T02:25:21;9.53;;;8.73;;
17566;SDS011;8901;52.088;5.084;2023-05-07T02:27:49;9.40;;;8.33;;
17566;SDS011;8901;52.088;5.084;2023-05-07T02:30:16;9.70;;;8.83;;
17566;SDS011;8901;52.088;5.084;2023-05-07T02:32:44;11.20;;;10.20;;
17566;SDS011;8901;52.088;5.084;2023-05-07T02:35:11;11.50;;;10.50;;
17566;SDS011;8901;52.088;5.084;2023-05-07T02:37:39;10.63;;;9.70;;
17566;SDS011;8901;52.088;5.084;2023-05-07T02:40:08;10.80;;;9.83;;
17566;SDS011;8901;52.088;5.084;2023-05-07T02:42:36;11.13;;;10.13;;
17566;SDS011;8901;52.088;5.084;2023-05-07T02:45:03;11.30;;;10.40;;
17566;SDS011;8901;52.088;5.084;2023-05-07T02:47:31;11.37;;;10.47;;
17566;SDS011;8901;52.088;5.084;2023-05-07T02:49:58;11.47;;;10.47;;
17566;SDS011;8901;52.088;5.084;2023-05-07T02:52:25;10.63;;;9.70;;
17566;SDS011;8901;52.088;5.084;2023-05-07T02:54:52;11.20;;;10.30;;
17566;SDS011;8901;52.088;5.084;2023-05-07T02:57:21;11.40;;;10.30;;
17566;SDS011;8901;52.088;5.084;2023-05-07T02:59:48;9.53;;;8.63;;
17566;SDS011;8901;52.088;5.084;2023-05-07T03:02:17;11.40;;;10.40;;
17566;SDS011;8901;52.088;5.084;2023-05-07T03:04:45;9.73;;;8.83;;
17566;SDS011;8901;52.088;5.084;2023-05-07T03:07:12;10.77;;;9.80;;
17566;SDS011;8901;52.088;5.084;2023-05-07T03:09:39;11.60;;;10.50;;
17566;SDS011;8901;52.088;5.084;2023-05-07T03:12:06;11.20;;;10.30;;
17566;SDS011;8901;52.088;5.084;2023-05-07T03:14:35;10.97;;;9.97;;
17566;SDS011;8901;52.088;5.084;2023-05-07T03:17:02;12.00;;;10.93;;
17566;SDS011;8901;52.088;5.084;2023-05-07T03:19:29;10.70;;;9.80;;
17566;SDS011;8901;52.088;5.084;2023-05-07T03:21:56;11.90;;;10.80;;
17566;SDS011;8901;52.088;5.084;2023-05-07T03:24:24;11.63;;;10.60;;
17566;SDS011;8901;52.088;5.084;2023-05-07T03:26:51;11.60;;;10.60;;
17566;SDS011;8901;52.088;5.084;2023-05-07T03:29:18;11.40;;;10.37;;
17566;SDS011;8901;52.088;5.084;2023-05-07T03:31:47;11.60;;;10.60;;
17566;SDS011;8901;52.088;5.084;2023-05-07T03:34:14;11.50;;;10.50;;
17566;SDS011;8901;52.088;5.084;2023-05-07T03:36:42;10.53;;;9.63;;
17566;SDS011;8901;52.088;5.084;2023-05-07T03:39:09;8.53;;;7.73;;
17566;SDS011;8901;52.088;5.084;2023-05-07T03:41:36;12.07;;;10.83;;
17566;SDS011;8901;52.088;5.084;2023-05-07T03:44:03;12.13;;;11.00;;
17566;SDS011;8901;52.088;5.084;2023-05-07T03:46:31;11.43;;;10.43;;
17566;SDS011;8901;52.088;5.084;2023-05-07T03:48:59;12.77;;;11.17;;
17566;SDS011;8901;52.088;5.084;2023-05-07T03:51:26;12.50;;;11.30;;
17566;SDS011;8901;52.088;5.084;2023-05-07T03:53:54;12.03;;;10.83;;
17566;SDS011;8901;52.088;5.084;2023-05-07T03:56:22;10.83;;;9.83;;
17566;SDS011;8901;52.088;5.084;2023-05-07T03:58:51;12.33;;;11.10;;
17566;SDS011;8901;52.088;5.084;2023-05-07T04:01:18;11.67;;;10.57;;
17566;SDS011;8901;52.088;5.084;2023-05-07T04:03:45;12.20;;;11.10;;
17566;SDS011;8901;52.088;5.084;2023-05-07T04:06:15;10.97;;;9.97;;
17566;SDS011;8901;52.088;5.084;2023-05-07T04:08:56;13.40;;;12.03;;
17566;SDS011;8901;52.088;5.084;2023-05-07T04:11:24;13.13;;;11.83;;
17566;SDS011;8901;52.088;5.084;2023-05-07T04:13:51;12.10;;;10.93;;
17566;SDS011;8901;52.088;5.084;2023-05-07T04:16:19;13.50;;;12.30;;
17566;SDS011;8901;52.088;5.084;2023-05-07T04:18:46;14.40;;;13.10;;
17566;SDS011;8901;52.088;5.084;2023-05-07T04:21:15;13.23;;;11.93;;
17566;SDS011;8901;52.088;5.084;2023-05-07T04:23:43;14.43;;;13.23;;
17566;SDS011;8901;52.088;5.084;2023-05-07T04:26:10;13.30;;;12.03;;
17566;SDS011;8901;52.088;5.084;2023-05-07T04:28:37;13.63;;;12.40;;
17566;SDS011;8901;52.088;5.084;2023-05-07T04:31:05;14.67;;;13.27;;
17566;SDS011;8901;52.088;5.084;2023-05-07T04:33:32;13.50;;;12.20;;
17566;SDS011;8901;52.088;5.084;2023-05-07T04:36:00;15.90;;;14.40;;
17566;SDS011;8901;52.088;5.084;2023-05-07T04:38:30;15.40;;;13.97;;
17566;SDS011;8901;52.088;5.084;2023-05-07T04:40:58;15.40;;;13.90;;
17566;SDS011;8901;52.088;5.084;2023-05-07T04:43:25;13.63;;;12.53;;
17566;SDS011;8901;52.088;5.084;2023-05-07T04:45:52;15.87;;;14.47;;
17566;SDS011;8901;52.088;5.084;2023-05-07T04:48:19;16.63;;;15.03;;
17566;SDS011;8901;52.088;5.084;2023-05-07T04:50:47;13.67;;;12.53;;
17566;SDS011;8901;52.088;5.084;2023-05-07T04:53:14;15.93;;;14.43;;
17566;SDS011;8901;52.088;5.084;2023-05-07T04:55:43;16.07;;;14.63;;
17566;SDS011;8901;52.088;5.084;2023-05-07T04:58:10;14.30;;;12.90;;
17566;SDS011;8901;52.088;5.084;2023-05-07T05:00:37;12.47;;;11.37;;
17566;SDS011;8901;52.088;5.084;2023-05-07T05:03:05;15.50;;;14.00;;
17566;SDS011;8901;52.088;5.084;2023-05-07T05:05:33;14.60;;;13.30;;
17566;SDS011;8901;52.088;5.084;2023-05-07T05:08:00;14.23;;;12.93;;
17566;SDS011;8901;52.088;5.084;2023-05-07T05:10:27;15.80;;;14.27;;
17566;SDS011;8901;52.088;5.084;2023-05-07T05:12:56;15.20;;;13.90;;
17566;SDS011;8901;52.088;5.084;2023-05-07T05:15:23;14.43;;;13.03;;
17566;SDS011;8901;52.088;5.084;2023-05-07T05:17:50;16.20;;;14.60;;
17566;SDS011;8901;52.088;5.084;2023-05-07T05:20:17;12.23;;;11.03;;
17566;SDS011;8901;52.088;5.084;2023-05-07T05:22:45;12.30;;;11.03;;
17566;SDS011;8901;52.088;5.084;2023-05-07T05:25:12;12.23;;;11.03;;
17566;SDS011;8901;52.088;5.084;2023-05-07T05:27:39;13.63;;;12.40;;
17566;SDS011;8901;52.088;5.084;2023-05-07T05:30:08;14.37;;;12.97;;
17566;SDS011;8901;52.088;5.084;2023-05-07T05:32:36;15.27;;;13.87;;
17566;SDS011;8901;52.088;5.084;2023-05-07T05:35:03;16.20;;;14.70;;
17566;SDS011;8901;52.088;5.084;2023-05-07T05:37:31;15.10;;;13.70;;
17566;SDS011;8901;52.088;5.084;2023-05-07T05:39:58;14.83;;;13.53;;
17566;SDS011;8901;52.088;5.084;2023-05-07T05:42:25;15.37;;;13.87;;
17566;SDS011;8901;52.088;5.084;2023-05-07T05:44:52;13.00;;;11.87;;
17566;SDS011;8901;52.088;5.084;2023-05-07T05:47:21;10.97;;;9.97;;
17566;SDS011;8901;52.088;5.084;2023-05-07T05:49:48;14.00;;;12.83;;
17566;SDS011;8901;52.088;5.084;2023-05-07T05:52:15;13.60;;;12.37;;
17566;SDS011;8901;52.088;5.084;2023-05-07T05:54:42;13.13;;;12.00;;
17566;SDS011;8901;52.088;5.084;2023-05-07T05:57:10;13.80;;;12.50;;
17566;SDS011;8901;52.088;5.084;2023-05-07T05:59:37;13.90;;;12.60;;
17566;SDS011;8901;52.088;5.084;2023-05-07T06:02:04;14.80;;;13.57;;
17566;SDS011;8901;52.088;5.084;2023-05-07T06:04:33;14.10;;;12.77;;
17566;SDS011;8901;52.088;5.084;2023-05-07T06:07:00;15.87;;;14.33;;
17566;SDS011;8901;52.088;5.084;2023-05-07T06:09:27;16.00;;;14.60;;
17566;SDS011;8901;52.088;5.084;2023-05-07T06:11:54;16.63;;;15.10;;
17566;SDS011;8901;52.088;5.084;2023-05-07T06:14:21;15.00;;;13.63;;
17566;SDS011;8901;52.088;5.084;2023-05-07T06:16:49;14.47;;;13.07;;
17566;SDS011;8901;52.088;5.084;2023-05-07T06:19:16;14.03;;;12.63;;
17566;SDS011;8901;52.088;5.084;2023-05-07T06:21:49;16.93;;;15.23;;
17566;SDS011;8901;52.088;5.084;2023-05-07T06:24:16;15.87;;;14.40;;
17566;SDS011;8901;52.088;5.084;2023-05-07T06:26:43;16.00;;;14.53;;
17566;SDS011;8901;52.088;5.084;2023-05-07T06:29:11;13.97;;;12.63;;
17566;SDS011;8901;52.088;5.084;2023-05-07T06:31:38;15.47;;;13.97;;
17566;SDS011;8901;52.088;5.084;2023-05-07T06:34:05;15.90;;;14.20;;
17566;SDS011;8901;52.088;5.084;2023-05-07T06:36:32;16.20;;;14.70;;
17566;SDS011;8901;52.088;5.084;2023-05-07T06:39:01;12.57;;;11.40;;
17566;SDS011;8901;52.088;5.084;2023-05-07T06:41:28;16.53;;;13.77;;
17566;SDS011;8901;52.088;5.084;2023-05-07T06:43:55;15.63;;;13.93;;
17566;SDS011;8901;52.088;5.084;2023-05-07T06:46:23;14.37;;;13.07;;
17566;SDS011;8901;52.088;5.084;2023-05-07T06:48:50;14.60;;;13.17;;
17566;SDS011;8901;52.088;5.084;2023-05-07T06:51:17;14.93;;;13.53;;
17566;SDS011;8901;52.088;5.084;2023-05-07T06:53:44;15.27;;;13.80;;
17566;SDS011;8901;52.088;5.084;2023-05-07T06:56:13;14.90;;;13.50;;
17566;SDS011;8901;52.088;5.084;2023-05-07T06:58:40;14.97;;;13.03;;
17566;SDS011;8901;52.088;5.084;2023-05-07T07:01:07;14.53;;;13.13;;
17566;SDS011;8901;52.088;5.084;2023-05-07T07:03:35;14.70;;;13.13;;
17566;SDS011;8901;52.088;5.084;2023-05-07T07:06:02;15.10;;;13.70;;
17566;SDS011;8901;52.088;5.084;2023-05-07T07:08:29;13.87;;;12.47;;
17566;SDS011;8901;52.088;5.084;2023-05-07T07:10:56;14.87;;;13.37;;
17566;SDS011;8901;52.088;5.084;2023-05-07T07:16:28;11.83;;;10.73;;
17566;SDS011;8901;52.088;5.084;2023-05-07T07:18:56;12.60;;;11.50;;
17566;SDS011;8901;52.088;5.084;2023-05-07T07:21:23;14.37;;;13.07;;
17566;SDS011;8901;52.088;5.084;2023-05-07T07:23:50;14.03;;;12.80;;
17566;SDS011;8901;52.088;5.084;2023-05-07T07:26:17;16.33;;;14.83;;
17566;SDS011;8901;52.088;5.084;2023-05-07T07:28:45;14.60;;;13.20;;
17566;SDS011;8901;52.088;5.084;2023-05-07T07:31:12;14.97;;;13.47;;
17566;SDS011;8901;52.088;5.084;2023-05-07T07:33:41;15.27;;;13.67;;
17566;SDS011;8901;52.088;5.084;2023-05-07T07:36:09;14.50;;;13.10;;
17566;SDS011;8901;52.088;5.084;2023-05-07T07:38:36;14.13;;;12.70;;
17566;SDS011;8901;52.088;5.084;2023-05-07T07:41:03;12.10;;;10.93;;
17566;SDS011;8901;52.088;5.084;2023-05-07T07:43:30;15.93;;;13.00;;
17566;SDS011;8901;52.088;5.084;2023-05-07T07:45:58;15.30;;;13.80;;
17566;SDS011;8901;52.088;5.084;2023-05-07T07:48:25;12.30;;;11.00;;
17566;SDS011;8901;52.088;5.084;2023-05-07T07:50:53;12.70;;;10.50;;
17566;SDS011;8901;52.088;5.084;2023-05-07T07:53:21;13.50;;;12.10;;
17566;SDS011;8901;52.088;5.084;2023-05-07T07:55:48;13.13;;;11.87;;
17566;SDS011;8901;52.088;5.084;2023-05-07T07:58:15;14.50;;;13.10;;
17566;SDS011;8901;52.088;5.084;2023-05-07T08:00:42;15.33;;;13.83;;
17566;SDS011;8901;52.088;5.084;2023-05-07T08:03:10;14.30;;;12.90;;
17566;SDS011;8901;52.088;5.084;2023-05-07T08:05:38;16.10;;;13.43;;
17566;SDS011;8901;52.088;5.084;2023-05-07T08:08:06;14.47;;;12.97;;
17566;SDS011;8901;52.088;5.084;2023-05-07T08:10:33;12.60;;;10.90;;
17566;SDS011;8901;52.088;5.084;2023-05-07T08:13:03;13.83;;;12.47;;
17566;SDS011;8901;52.088;5.084;2023-05-07T08:15:30;14.37;;;13.07;;
17566;SDS011;8901;52.088;5.084;2023-05-07T08:17:58;12.07;;;10.97;;
17566;SDS011;8901;52.088;5.084;2023-05-07T08:20:25;10.27;;;9.33;;
17566;SDS011;8901;52.088;5.084;2023-05-07T08:22:52;10.60;;;9.53;;
17566;SDS011;8901;52.088;5.084;2023-05-07T08:25:21;13.37;;;12.07;;
17566;SDS011;8901;52.088;5.084;2023-05-07T08:27:48;13.87;;;12.43;;
17566;SDS011;8901;52.088;5.084;2023-05-07T08:30:15;12.87;;;10.70;;
17566;SDS011;8901;52.088;5.084;2023-05-07T08:32:43;12.83;;;11.53;;
17566;SDS011;8901;52.088;5.084;2023-05-07T08:35:10;12.33;;;11.23;;
17566;SDS011;8901;52.088;5.084;2023-05-07T08:37:37;13.63;;;11.83;;
17566;SDS011;8901;52.088;5.084;2023-05-07T08:40:05;13.13;;;11.83;;
17566;SDS011;8901;52.088;5.084;2023-05-07T08:42:34;9.87;;;8.87;;
17566;SDS011;8901;52.088;5.084;2023-05-07T08:45:02;13.10;;;8.53;;
17566;SDS011;8901;52.088;5.084;2023-05-07T08:47:32;10.60;;;9.50;;
17566;SDS011;8901;52.088;5.084;2023-05-07T08:50:01;10.50;;;9.00;;
17566;SDS011;8901;52.088;5.084;2023-05-07T08:52:28;8.90;;;8.00;;
17566;SDS011;8901;52.088;5.084;2023-05-07T08:54:56;10.00;;;8.27;;
17566;SDS011;8901;52.088;5.084;2023-05-07T08:57:23;11.77;;;8.30;;
17566;SDS011;8901;52.088;5.084;2023-05-07T08:59:52;11.10;;;8.37;;
17566;SDS011;8901;52.088;5.084;2023-05-07T09:02:19;10.90;;;9.60;;
17566;SDS011;8901;52.088;5.084;2023-05-07T09:04:46;11.87;;;9.00;;
17566;SDS011;8901;52.088;5.084;2023-05-07T09:07:13;8.93;;;8.03;;
17566;SDS011;8901;52.088;5.084;2023-05-07T09:09:40;9.70;;;8.77;;
17566;SDS011;8901;52.088;5.084;2023-05-07T09:12:07;9.57;;;8.67;;
17566;SDS011;8901;52.088;5.084;2023-05-07T09:14:35;10.10;;;8.83;;
17566;SDS011;8901;52.088;5.084;2023-05-07T09:17:03;17.70;;;16.07;;
17566;SDS011;8901;52.088;5.084;2023-05-07T09:19:30;12.50;;;11.23;;
17566;SDS011;8901;52.088;5.084;2023-05-07T09:21:58;9.33;;;7.97;;
17566;SDS011;8901;52.088;5.084;2023-05-07T09:24:26;9.97;;;7.73;;
17566;SDS011;8901;52.088;5.084;2023-05-07T09:26:57;9.57;;;8.57;;
17566;SDS011;8901;52.088;5.084;2023-05-07T09:29:25;13.07;;;8.60;;
17566;SDS011;8901;52.088;5.084;2023-05-07T09:31:53;12.23;;;7.87;;
17566;SDS011;8901;52.088;5.084;2023-05-07T09:34:22;9.20;;;8.30;;
17566;SDS011;8901;52.088;5.084;2023-05-07T09:36:49;9.73;;;8.77;;
17566;SDS011;8901;52.088;5.084;2023-05-07T09:39:16;10.83;;;8.63;;
17566;SDS011;8901;52.088;5.084;2023-05-07T09:41:43;12.73;;;9.67;;
17566;SDS011;8901;52.088;5.084;2023-05-07T09:44:11;11.60;;;9.00;;
17566;SDS011;8901;52.088;5.084;2023-05-07T09:46:38;10.60;;;9.40;;
17566;SDS011;8901;52.088;5.084;2023-05-07T09:49:06;10.70;;;9.70;;
17566;SDS011;8901;52.088;5.084;2023-05-07T09:51:39;11.63;;;7.90;;
17566;SDS011;8901;52.088;5.084;2023-05-07T09:54:08;8.83;;;7.93;;
17566;SDS011;8901;52.088;5.084;2023-05-07T09:56:35;8.20;;;7.30;;
17566;SDS011;8901;52.088;5.084;2023-05-07T09:59:03;9.23;;;8.33;;
17566;SDS011;8901;52.088;5.084;2023-05-07T10:01:30;9.40;;;8.40;;
17566;SDS011;8901;52.088;5.084;2023-05-07T10:07:02;9.13;;;7.50;;
17566;SDS011;8901;52.088;5.084;2023-05-07T10:09:30;7.67;;;6.37;;
17566;SDS011;8901;52.088;5.084;2023-05-07T10:11:57;7.13;;;6.30;;
17566;SDS011;8901;52.088;5.084;2023-05-07T10:14:25;7.50;;;6.70;;
17566;SDS011;8901;52.088;5.084;2023-05-07T10:16:53;7.20;;;6.50;;
17566;SDS011;8901;52.088;5.084;2023-05-07T10:19:21;7.47;;;6.77;;
17566;SDS011;8901;52.088;5.084;2023-05-07T10:21:51;8.40;;;7.23;;
17566;SDS011;8901;52.088;5.084;2023-05-07T10:24:25;8.87;;;7.97;;
17566;SDS011;8901;52.088;5.084;2023-05-07T10:26:52;9.00;;;7.70;;
17566;SDS011;8901;52.088;5.084;2023-05-07T10:29:21;8.03;;;6.43;;
17566;SDS011;8901;52.088;5.084;2023-05-07T10:31:54;8.67;;;6.60;;
17566;SDS011;8901;52.088;5.084;2023-05-07T10:34:23;9.60;;;7.37;;
17566;SDS011;8901;52.088;5.084;2023-05-07T10:36:51;6.97;;;6.03;;
17566;SDS011;8901;52.088;5.084;2023-05-07T10:39:18;7.47;;;6.70;;
17566;SDS011;8901;52.088;5.084;2023-05-07T10:41:47;8.77;;;6.40;;
17566;SDS011;8901;52.088;5.084;2023-05-07T10:44:24;7.53;;;5.70;;
17566;SDS011;8901;52.088;5.084;2023-05-07T10:47:05;7.10;;;5.97;;
17566;SDS011;8901;52.088;5.084;2023-05-07T10:49:34;6.67;;;6.03;;
17566;SDS011;8901;52.088;5.084;2023-05-07T10:52:13;8.70;;;6.17;;
17566;SDS011;8901;52.088;5.084;2023-05-07T10:54:41;7.07;;;6.23;;
17566;SDS011;8901;52.088;5.084;2023-05-07T11:03:06;6.30;;;5.67;;
17566;SDS011;8901;52.088;5.084;2023-05-07T11:05:33;6.10;;;5.50;;
17566;SDS011;8901;52.088;5.084;2023-05-07T11:08:01;6.53;;;5.83;;
17566;SDS011;8901;52.088;5.084;2023-05-07T11:13:10;6.43;;;5.82;;
17566;SDS011;8901;52.088;5.084;2023-05-07T11:15:44;7.83;;;6.40;;
17566;SDS011;8901;52.088;5.084;2023-05-07T11:18:14;7.17;;;6.47;;
17566;SDS011;8901;52.088;5.084;2023-05-07T11:20:45;7.70;;;6.93;;
17566;SDS011;8901;52.088;5.084;2023-05-07T11:25:57;7.67;;;6.77;;
17566;SDS011;8901;52.088;5.084;2023-05-07T11:28:36;8.85;;;7.10;;
17566;SDS011;8901;52.088;5.084;2023-05-07T11:31:03;8.37;;;7.67;;
17566;SDS011;8901;52.088;5.084;2023-05-07T11:33:32;8.80;;;7.90;;
17566;SDS011;8901;52.088;5.084;2023-05-07T11:36:00;7.70;;;7.00;;
17566;SDS011;8901;52.088;5.084;2023-05-07T11:38:27;8.67;;;7.87;;
17566;SDS011;8901;52.088;5.084;2023-05-07T11:40:56;10.00;;;7.97;;
17566;SDS011;8901;52.088;5.084;2023-05-07T11:46:27;10.85;;;9.10;;
17566;SDS011;8901;52.088;5.084;2023-05-07T11:48:56;9.88;;;8.88;;
17566;SDS011;8901;52.088;5.084;2023-05-07T11:51:24;8.33;;;7.30;;
17566;SDS011;8901;52.088;5.084;2023-05-07T11:53:52;7.73;;;7.03;;
17566;SDS011;8901;52.088;5.084;2023-05-07T11:56:19;6.97;;;6.40;;
17566;SDS011;8901;52.088;5.084;2023-05-07T11:58:47;7.35;;;6.65;;
17566;SDS011;8901;52.088;5.084;2023-05-07T12:04:20;7.15;;;6.55;;
17566;SDS011;8901;52.088;5.084;2023-05-07T12:06:48;9.23;;;7.10;;
17566;SDS011;8901;52.088;5.084;2023-05-07T12:09:16;9.15;;;7.47;;
17566;SDS011;8901;52.088;5.084;2023-05-07T12:11:45;8.07;;;7.30;;
17566;SDS011;8901;52.088;5.084;2023-05-07T12:17:16;8.00;;;7.20;;
17566;SDS011;8901;52.088;5.084;2023-05-07T12:19:44;7.97;;;7.28;;
17566;SDS011;8901;52.088;5.084;2023-05-07T12:24:59;8.32;;;7.63;;
17566;SDS011;8901;52.088;5.084;2023-05-07T12:27:27;8.18;;;7.38;;
17566;SDS011;8901;52.088;5.084;2023-05-07T12:29:56;7.30;;;6.55;;
17566;SDS011;8901;52.088;5.084;2023-05-07T12:32:24;8.95;;;8.05;;
17566;SDS011;8901;52.088;5.084;2023-05-07T12:34:52;8.32;;;7.70;;
17566;SDS011;8901;52.088;5.084;2023-05-07T12:37:22;8.60;;;7.80;;
17566;SDS011;8901;52.088;5.084;2023-05-07T12:40:02;9.40;;;8.70;;
17566;SDS011;8901;52.088;5.084;2023-05-07T12:45:48;9.25;;;8.35;;
17566;SDS011;8901;52.088;5.084;2023-05-07T12:51:32;10.43;;;8.95;;
17566;SDS011;8901;52.088;5.084;2023-05-07T12:56:43;10.90;;;10.00;;
17566;SDS011;8901;52.088;5.084;2023-05-07T13:02:08;11.30;;;10.25;;
17566;SDS011;8901;52.088;5.084;2023-05-07T13:07:19;10.90;;;9.82;;
17566;SDS011;8901;52.088;5.084;2023-05-07T13:12:50;11.57;;;10.48;;
17566;SDS011;8901;52.088;5.084;2023-05-07T13:18:06;11.88;;;10.68;;
17566;SDS011;8901;52.088;5.084;2023-05-07T13:26:44;11.05;;;10.05;;
17566;SDS011;8901;52.088;5.084;2023-05-07T13:32:15;11.57;;;10.48;;
17566;SDS011;8901;52.088;5.084;2023-05-07T13:34:42;10.73;;;9.85;;
17566;SDS011;8901;52.088;5.084;2023-05-07T13:54:41;13.13;;;11.13;;
17566;SDS011;8901;52.088;5.084;2023-05-07T14:00:17;11.10;;;10.00;;
17566;SDS011;8901;52.088;5.084;2023-05-07T14:02:50;10.68;;;9.70;;
17566;SDS011;8901;52.088;5.084;2023-05-07T14:14:09;10.20;;;9.30;;
17566;SDS011;8901;52.088;5.084;2023-05-07T14:16:37;9.68;;;8.77;;
17566;SDS011;8901;52.088;5.084;2023-05-07T14:19:06;8.02;;;7.32;;
17566;SDS011;8901;52.088;5.084;2023-05-07T14:21:34;11.05;;;10.25;;
17566;SDS011;8901;52.088;5.084;2023-05-07T14:24:17;12.73;;;11.63;;
17566;SDS011;8901;52.088;5.084;2023-05-07T14:26:52;13.25;;;11.93;;
17566;SDS011;8901;52.088;5.084;2023-05-07T14:29:31;13.43;;;12.43;;
17566;SDS011;8901;52.088;5.084;2023-05-07T14:32:11;11.38;;;10.45;;
17566;SDS011;8901;52.088;5.084;2023-05-07T14:34:51;12.40;;;11.32;;
17566;SDS011;8901;52.088;5.084;2023-05-07T14:40:04;10.50;;;9.23;;
17566;SDS011;8901;52.088;5.084;2023-05-07T14:42:33;9.52;;;8.63;;
17566;SDS011;8901;52.088;5.084;2023-05-07T14:45:14;9.73;;;7.93;;
17566;SDS011;8901;52.088;5.084;2023-05-07T14:47:57;9.07;;;6.23;;
17566;SDS011;8901;52.088;5.084;2023-05-07T14:56:16;18.53;;;9.47;;
17566;SDS011;8901;52.088;5.084;2023-05-07T15:01:49;15.33;;;9.60;;
17566;SDS011;8901;52.088;5.084;2023-05-07T15:13:10;10.10;;;6.90;;
17566;SDS011;8901;52.088;5.084;2023-05-07T15:15:45;13.80;;;7.33;;
17566;SDS011;8901;52.088;5.084;2023-05-07T15:18:23;6.83;;;5.40;;
17566;SDS011;8901;52.088;5.084;2023-05-07T15:41:08;5.53;;;4.93;;
17566;SDS011;8901;52.088;5.084;2023-05-07T15:46:46;5.77;;;5.13;;
17566;SDS011;8901;52.088;5.084;2023-05-07T15:49:27;5.80;;;5.13;;
17566;SDS011;8901;52.088;5.084;2023-05-07T15:57:46;6.87;;;5.87;;
17566;SDS011;8901;52.088;5.084;2023-05-07T16:03:16;6.87;;;5.43;;
17566;SDS011;8901;52.088;5.084;2023-05-07T16:06:00;6.43;;;5.70;;
17566;SDS011;8901;52.088;5.084;2023-05-07T16:14:26;5.83;;;5.33;;
17566;SDS011;8901;52.088;5.084;2023-05-07T16:22:47;5.50;;;5.00;;
17566;SDS011;8901;52.088;5.084;2023-05-07T16:36:44;4.40;;;3.90;;
17566;SDS011;8901;52.088;5.084;2023-05-07T16:39:12;4.73;;;4.13;;
17566;SDS011;8901;52.088;5.084;2023-05-07T16:41:40;4.40;;;4.00;;
17566;SDS011;8901;52.088;5.084;2023-05-07T16:44:21;6.13;;;4.10;;
17566;SDS011;8901;52.088;5.084;2023-05-07T16:49:52;4.30;;;4.00;;
17566;SDS011;8901;52.088;5.084;2023-05-07T16:55:25;4.20;;;3.80;;
17566;SDS011;8901;52.088;5.084;2023-05-07T17:03:17;3.93;;;3.63;;
17566;SDS011;8901;52.088;5.084;2023-05-07T17:05:44;3.57;;;3.27;;
17566;SDS011;8901;52.088;5.084;2023-05-07T17:08:21;3.90;;;3.50;;
17566;SDS011;8901;52.088;5.084;2023-05-07T17:10:52;3.23;;;2.93;;
17566;SDS011;8901;52.088;5.084;2023-05-07T17:13:20;3.40;;;3.10;;
17566;SDS011;8901;52.088;5.084;2023-05-07T17:27:42;5.03;;;3.93;;
17566;SDS011;8901;52.088;5.084;2023-05-07T17:33:12;3.60;;;3.23;;
17566;SDS011;8901;52.088;5.084;2023-05-07T17:35:41;6.63;;;3.60;;
17566;SDS011;8901;52.088;5.084;2023-05-07T17:38:09;3.83;;;3.20;;
17566;SDS011;8901;52.088;5.084;2023-05-07T17:40:46;3.90;;;3.60;;
17566;SDS011;8901;52.088;5.084;2023-05-07T17:45:53;3.57;;;3.27;;
17566;SDS011;8901;52.088;5.084;2023-05-07T17:48:26;3.17;;;2.97;;
17566;SDS011;8901;52.088;5.084;2023-05-07T17:53:57;4.70;;;3.60;;
17566;SDS011;8901;52.088;5.084;2023-05-07T18:05:26;4.80;;;4.40;;
17566;SDS011;8901;52.088;5.084;2023-05-07T18:10:57;4.90;;;4.50;;
17566;SDS011;8901;52.088;5.084;2023-05-07T18:22:19;8.33;;;5.33;;
17566;SDS011;8901;52.088;5.084;2023-05-07T18:28:05;4.90;;;4.60;;
17566;SDS011;8901;52.088;5.084;2023-05-07T18:30:45;4.40;;;4.10;;
17566;SDS011;8901;52.088;5.084;2023-05-07T18:33:23;6.17;;;5.00;;
17566;SDS011;8901;52.088;5.084;2023-05-07T18:38:55;4.70;;;4.30;;
17566;SDS011;8901;52.088;5.084;2023-05-07T18:44:26;5.43;;;4.50;;
17566;SDS011;8901;52.088;5.084;2023-05-07T18:46:55;5.43;;;4.97;;
17566;SDS011;8901;52.088;5.084;2023-05-07T18:49:22;5.40;;;4.95;;
17566;SDS011;8901;52.088;5.084;2023-05-07T18:51:49;4.93;;;4.63;;
17566;SDS011;8901;52.088;5.084;2023-05-07T18:54:18;5.10;;;4.80;;
17566;SDS011;8901;52.088;5.084;2023-05-07T18:56:45;5.65;;;5.30;;
17566;SDS011;8901;52.088;5.084;2023-05-07T18:59:13;6.00;;;5.50;;
17566;SDS011;8901;52.088;5.084;2023-05-07T19:01:40;5.37;;;5.03;;
17566;SDS011;8901;52.088;5.084;2023-05-07T19:04:07;5.67;;;5.10;;
17566;SDS011;8901;52.088;5.084;2023-05-07T19:06:35;5.73;;;5.33;;
17566;SDS011;8901;52.088;5.084;2023-05-07T19:09:02;5.90;;;5.40;;
17566;SDS011;8901;52.088;5.084;2023-05-07T19:11:31;5.53;;;5.22;;
17566;SDS011;8901;52.088;5.084;2023-05-07T19:13:58;6.22;;;5.70;;
17566;SDS011;8901;52.088;5.084;2023-05-07T19:16:25;6.35;;;5.95;;
17566;SDS011;8901;52.088;5.084;2023-05-07T19:18:55;7.07;;;5.18;;
17566;SDS011;8901;52.088;5.084;2023-05-07T19:21:23;6.32;;;5.82;;
17566;SDS011;8901;52.088;5.084;2023-05-07T19:23:52;6.10;;;5.70;;
17566;SDS011;8901;52.088;5.084;2023-05-07T19:26:21;6.57;;;6.17;;
17566;SDS011;8901;52.088;5.084;2023-05-07T19:28:50;6.40;;;5.90;;
17566;SDS011;8901;52.088;5.084;2023-05-07T19:31:18;6.05;;;5.65;;
17566;SDS011;8901;52.088;5.084;2023-05-07T19:33:45;6.50;;;5.90;;
17566;SDS011;8901;52.088;5.084;2023-05-07T19:36:12;6.60;;;6.00;;
17566;SDS011;8901;52.088;5.084;2023-05-07T19:38:41;6.82;;;6.35;;
17566;SDS011;8901;52.088;5.084;2023-05-07T19:41:08;6.80;;;6.40;;
17566;SDS011;8901;52.088;5.084;2023-05-07T19:43:36;5.60;;;5.20;;
17566;SDS011;8901;52.088;5.084;2023-05-07T19:46:05;7.30;;;5.97;;
17566;SDS011;8901;52.088;5.084;2023-05-07T19:48:32;15.85;;;5.95;;